createdAt,value
2022-11-10T00:01:48.012Z,32.4
2022-11-10T00:16:49.891Z,32.4
2022-11-10T00:31:51.818Z,21.6
2022-11-10T00:46:53.657Z,0
2022-11-10T01:01:55.495Z,0
2022-11-10T01:16:57.330Z,0
2022-11-10T01:31:59.188Z,0
2022-11-10T01:47:01.043Z,0
2022-11-10T02:02:02.885Z,0
2022-11-10T02:17:04.722Z,0
2022-11-10T02:32:06.772Z,0
2022-11-10T02:47:08.696Z,0
2022-11-10T03:02:10.538Z,0
2022-11-10T03:17:12.387Z,0
2022-11-10T03:32:14.241Z,0
2022-11-10T03:47:16.763Z,0
2022-11-10T04:02:18.607Z,0
2022-11-10T04:17:20.437Z,0
2022-11-10T04:32:22.283Z,0
2022-11-10T04:47:24.192Z,0
2022-11-10T05:02:26.056Z,0
2022-11-10T05:17:27.928Z,0
2022-11-10T05:32:29.762Z,0
2022-11-10T05:47:31.623Z,0
2022-11-10T06:02:33.475Z,0
2022-11-10T06:17:35.413Z,0
2022-11-10T06:32:37.438Z,0
2022-11-10T06:47:39.321Z,0
2022-11-10T07:02:41.169Z,0
2022-11-10T07:17:43.132Z,0
2022-11-10T07:32:44.960Z,0
2022-11-10T07:47:46.867Z,0
2022-11-10T08:02:48.717Z,0
2022-11-10T08:17:50.588Z,0
2022-11-10T08:32:52.445Z,0
2022-11-10T08:47:54.317Z,0
2022-11-10T09:02:56.215Z,0
2022-11-10T09:17:58.068Z,0
2022-11-10T09:32:59.876Z,0
2022-11-10T09:48:01.687Z,0
2022-11-10T10:03:03.509Z,0
2022-11-10T10:18:05.343Z,0
2022-11-10T10:33:07.271Z,0
2022-11-10T10:48:09.119Z,0
2022-11-10T11:03:10.951Z,0
2022-11-10T11:18:12.786Z,0
2022-11-10T11:33:14.636Z,0
2022-11-10T11:48:16.696Z,0
2022-11-10T12:03:18.610Z,0
2022-11-10T12:18:20.781Z,0
2022-11-10T12:33:22.880Z,0
2022-11-10T12:48:25.064Z,0
2022-11-10T13:03:27.177Z,0
2022-11-10T13:18:29.016Z,0
2022-11-10T13:33:30.861Z,0
2022-11-10T13:48:32.758Z,0
2022-11-10T14:03:34.787Z,0
2022-11-10T14:18:36.727Z,0
2022-11-10T14:33:38.551Z,0
2022-11-10T14:48:40.390Z,0
2022-11-10T15:03:42.259Z,1.8
2022-11-10T15:18:44.101Z,3.6
2022-11-10T15:33:45.953Z,5.4
2022-11-10T15:48:47.751Z,7.2
2022-11-10T16:03:49.689Z,10.8
2022-11-10T16:18:51.525Z,12.6
2022-11-10T16:33:53.588Z,19.8
2022-11-10T16:48:55.389Z,21.6
2022-11-10T17:03:57.238Z,14.4
2022-11-10T17:18:59.114Z,19.8
2022-11-10T17:34:01.051Z,21.6
2022-11-10T17:49:03.437Z,23.4
2022-11-10T18:04:05.333Z,28.8
2022-11-10T18:19:07.199Z,39.6
2022-11-10T18:34:09.029Z,41.4
2022-11-10T18:49:10.898Z,39.6
2022-11-10T19:04:12.865Z,48.6
2022-11-10T19:19:14.734Z,46.8
2022-11-10T19:34:16.792Z,48.6
2022-11-10T19:49:18.655Z,46.8
2022-11-10T20:04:20.509Z,54
2022-11-10T20:19:22.381Z,52.2
2022-11-10T20:34:24.241Z,50.4
2022-11-10T20:49:26.065Z,50.4
2022-11-10T21:04:27.989Z,48.6
2022-11-10T21:19:29.861Z,46.8
2022-11-10T21:34:31.692Z,45
2022-11-10T21:49:33.566Z,45
2022-11-10T22:04:35.463Z,41.4
2022-11-10T22:19:37.311Z,41.4
2022-11-10T22:34:39.165Z,36
2022-11-10T22:49:41.070Z,34.2
2022-11-10T23:04:42.934Z,30.6
2022-11-10T23:19:44.816Z,25.2
2022-11-10T23:34:46.714Z,18
2022-11-10T23:49:48.562Z,14.4
